Time;durP1;ratioP1;P1;durP2;ratioP2;P2;SDS_P1;SDS_P2;PMS_P1;PMS_P2;Temp;Humidity;BMP_temperature;BMP_pressure;BME280_temperature;BME280_humidity;BME280_pressure;Samples;Min_cycle;Max_cycle;Signal;HPM_P1;HPM_P2
2023/03/07 00:01:31;;;;;;;5.97;4.33;;;5.80;99.90;;;;;;5095835;28;20168;-68
2023/03/07 00:03:58;;;;;;;10.50;4.73;;;5.80;99.90;;;;;;5095691;28;20180;-68
2023/03/07 00:06:24;;;;;;;8.07;4.37;;;5.80;99.90;;;;;;5096007;28;20614;-68
2023/03/07 00:08:51;;;;;;;6.83;4.60;;;5.80;99.90;;;;;;5095832;28;20172;-68
2023/03/07 00:11:18;;;;;;;4.80;4.30;;;5.90;99.90;;;;;;5095942;28;20218;-67
2023/03/07 00:13:43;;;;;;;7.77;4.87;;;5.80;99.90;;;;;;5095539;28;20252;-67
2023/03/07 00:16:13;;;;;;;7.10;5.00;;;5.80;99.90;;;;;;5095861;28;20172;-68
2023/03/07 00:18:40;;;;;;;8.57;4.70;;;5.80;99.90;;;;;;5095459;28;20706;-68
2023/03/07 00:21:08;;;;;;;7.90;5.03;;;5.80;99.90;;;;;;5095897;28;20196;-66
2023/03/07 00:23:35;;;;;;;9.00;5.57;;;5.90;99.90;;;;;;5095615;28;20195;-67
2023/03/07 00:26:04;;;;;;;9.87;5.83;;;5.80;99.90;;;;;;5095648;28;20172;-68
2023/03/07 00:28:30;;;;;;;8.03;6.30;;;5.80;99.90;;;;;;5095109;28;20172;-68
2023/03/07 00:31:00;;;;;;;10.20;6.57;;;5.80;99.90;;;;;;5094296;28;20175;-67
2023/03/07 00:33:26;;;;;;;10.30;7.40;;;5.90;99.90;;;;;;5094901;28;20207;-68
2023/03/07 00:36:03;;;;;;;12.93;9.07;;;5.90;99.90;;;;;;5095341;28;20172;-68
2023/03/07 00:38:30;;;;;;;14.60;9.10;;;5.80;99.90;;;;;;5095293;28;20171;-67
2023/03/07 00:41:08;;;;;;;13.07;9.90;;;5.80;99.90;;;;;;5095189;28;20171;-67
2023/03/07 00:43:34;;;;;;;16.90;10.33;;;5.80;99.90;;;;;;5095234;28;20652;-68
2023/03/07 00:46:00;;;;;;;15.33;11.03;;;5.90;99.90;;;;;;5095264;28;20168;-68
2023/03/07 00:48:27;;;;;;;16.53;10.73;;;5.80;99.90;;;;;;5094870;28;20174;-67
2023/03/07 00:50:52;;;;;;;19.60;11.70;;;5.90;99.90;;;;;;5095150;28;20310;-68
2023/03/07 00:53:19;;;;;;;17.33;11.60;;;5.90;99.90;;;;;;5094894;28;20274;-67
2023/03/07 00:55:54;;;;;;;16.67;11.50;;;5.80;99.90;;;;;;5094978;28;20187;-67
2023/03/07 00:58:20;;;;;;;20.60;13.03;;;5.90;99.90;;;;;;5095011;28;20191;-67
2023/03/07 01:00:46;;;;;;;20.40;11.40;;;5.80;99.90;;;;;;5094889;28;20172;-67
2023/03/07 01:03:11;;;;;;;19.10;12.70;;;5.80;99.90;;;;;;5094604;28;20703;-67
2023/03/07 01:05:40;;;;;;;19.00;12.27;;;5.90;99.90;;;;;;5094718;28;20161;-68
2023/03/07 01:08:06;;;;;;;21.53;11.80;;;5.80;99.90;;;;;;5093384;28;20174;-67
2023/03/07 01:10:32;;;;;;;17.73;12.13;;;5.90;99.90;;;;;;5094669;28;20172;-66
2023/03/07 01:12:59;;;;;;;17.03;10.67;;;6.00;99.90;;;;;;5094678;28;20172;-67
2023/03/07 01:15:25;;;;;;;19.80;12.13;;;5.80;99.90;;;;;;5094640;28;20216;-67
2023/03/07 01:17:50;;;;;;;15.53;11.10;;;5.90;99.90;;;;;;5094353;28;20245;-68
2023/03/07 01:20:16;;;;;;;18.27;10.97;;;5.90;99.90;;;;;;5094566;28;20556;-68
2023/03/07 01:22:42;;;;;;;15.03;10.73;;;5.90;99.90;;;;;;5094232;28;20637;-67
2023/03/07 01:25:08;;;;;;;18.00;11.93;;;5.90;99.90;;;;;;5094566;28;20175;-67
2023/03/07 01:27:34;;;;;;;17.23;11.83;;;5.90;99.90;;;;;;5094434;28;20522;-68
2023/03/07 01:29:59;;;;;;;21.13;12.23;;;5.90;99.90;;;;;;5093987;28;20180;-67
2023/03/07 01:32:25;;;;;;;18.60;12.60;;;5.90;99.90;;;;;;5094074;28;20172;-68
2023/03/07 01:34:50;;;;;;;18.53;11.93;;;5.90;99.90;;;;;;5094050;28;20238;-68
2023/03/07 01:37:17;;;;;;;16.70;10.77;;;5.90;99.90;;;;;;5094209;28;20247;-68
2023/03/07 01:39:43;;;;;;;19.77;11.20;;;5.80;99.90;;;;;;5093720;28;20619;-67
2023/03/07 01:42:09;;;;;;;20.60;12.70;;;5.70;99.90;;;;;;5094158;28;20678;-68
2023/03/07 01:45:03;;;;;;;18.73;12.20;;;5.70;99.90;;;;;;5094290;28;20256;-67
2023/03/07 01:47:28;;;;;;;17.83;11.93;;;5.70;99.90;;;;;;5094321;28;20516;-68
2023/03/07 01:49:54;;;;;;;19.33;11.77;;;5.70;99.90;;;;;;5093974;28;20176;-69
2023/03/07 01:52:24;;;;;;;18.90;12.27;;;5.70;99.90;;;;;;5094160;28;20160;-67
2023/03/07 01:55:03;;;;;;;21.83;12.40;;;5.70;99.90;;;;;;5093930;28;20200;-68
2023/03/07 01:57:34;;;;;;;20.50;13.10;;;5.60;99.90;;;;;;5093984;28;20217;-67
2023/03/07 02:00:07;;;;;;;19.80;12.37;;;5.60;99.90;;;;;;5093441;28;20199;-67
2023/03/07 02:02:33;;;;;;;18.87;12.47;;;5.60;99.90;;;;;;5092755;28;20601;-67
2023/03/07 02:05:06;;;;;;;19.07;12.20;;;5.60;99.90;;;;;;5093727;28;20216;-68
2023/03/07 02:07:36;;;;;;;21.53;12.33;;;5.60;99.90;;;;;;5094001;28;20241;-68
2023/03/07 02:10:04;;;;;;;18.53;12.83;;;5.60;99.90;;;;;;5093707;28;20180;-67
2023/03/07 02:12:30;;;;;;;18.30;12.63;;;5.60;99.90;;;;;;5093415;28;20217;-68
2023/03/07 02:14:55;;;;;;;18.17;12.50;;;5.70;99.90;;;;;;5093102;28;20215;-68
2023/03/07 02:17:21;;;;;;;24.87;13.87;;;5.70;99.90;;;;;;5093357;28;20178;-66
2023/03/07 02:19:51;;;;;;;17.27;13.30;;;5.70;99.90;;;;;;5093444;28;20176;-66
2023/03/07 02:22:18;;;;;;;20.00;13.87;;;5.60;99.90;;;;;;5093614;28;20679;-67
2023/03/07 02:24:59;;;;;;;20.47;13.37;;;5.70;99.90;;;;;;5093512;28;20172;-67
2023/03/07 02:27:25;;;;;;;24.83;13.57;;;5.60;99.90;;;;;;5093439;28;20220;-67
2023/03/07 02:29:51;;;;;;;27.77;18.10;;;5.60;99.90;;;;;;5093042;28;20230;-66
2023/03/07 02:32:17;;;;;;;33.80;19.33;;;5.70;99.90;;;;;;5093452;28;20172;-68
2023/03/07 02:34:42;;;;;;;24.30;14.63;;;5.70;99.90;;;;;;5092949;28;20774;-69
2023/03/07 02:37:34;;;;;;;21.13;13.30;;;5.70;99.90;;;;;;5093277;28;20175;-67
2023/03/07 02:40:05;;;;;;;19.30;12.30;;;5.60;99.90;;;;;;5093436;28;20202;-67
2023/03/07 02:42:34;;;;;;;30.50;14.17;;;5.50;99.90;;;;;;5093334;28;20164;-67
2023/03/07 02:45:02;;;;;;;19.70;12.67;;;5.50;99.90;;;;;;5093110;28;20313;-68
2023/03/07 02:47:28;;;;;;;17.47;12.73;;;5.50;99.90;;;;;;5093145;28;20623;-68
2023/03/07 02:49:54;;;;;;;18.67;12.83;;;5.50;99.90;;;;;;5094143;28;20179;-67
2023/03/07 02:52:20;;;;;;;17.27;12.53;;;5.50;99.90;;;;;;5097291;28;20214;-68
2023/03/07 02:54:46;;;;;;;17.03;11.80;;;5.50;99.90;;;;;;5097258;28;20615;-67
2023/03/07 02:57:13;;;;;;;21.80;12.67;;;5.50;99.90;;;;;;5097265;28;20171;-68
2023/03/07 02:59:38;;;;;;;20.10;13.03;;;5.50;99.90;;;;;;5095679;28;20202;-67
2023/03/07 03:02:04;;;;;;;19.33;13.63;;;5.50;99.90;;;;;;5097054;28;20175;-69
2023/03/07 03:04:29;;;;;;;19.07;12.87;;;5.60;99.90;;;;;;5097258;28;20250;-66
2023/03/07 03:06:55;;;;;;;19.87;12.83;;;5.60;99.90;;;;;;5097248;28;20176;-68
2023/03/07 03:09:21;;;;;;;17.73;13.03;;;5.50;99.90;;;;;;5097165;28;20606;-66
2023/03/07 03:11:46;;;;;;;19.63;12.00;;;5.50;99.90;;;;;;5097146;28;20189;-67
2023/03/07 03:14:12;;;;;;;22.00;13.77;;;5.50;99.90;;;;;;5096550;28;20559;-67
2023/03/07 03:16:39;;;;;;;21.60;12.77;;;5.60;99.90;;;;;;5096983;28;20160;-67
2023/03/07 03:19:05;;;;;;;18.40;13.13;;;5.50;99.90;;;;;;5097080;28;20163;-67
2023/03/07 03:21:31;;;;;;;22.00;13.90;;;5.60;99.90;;;;;;5095618;28;20175;-67
2023/03/07 03:23:56;;;;;;;18.60;11.53;;;5.60;99.90;;;;;;5096928;28;20184;-67
2023/03/07 03:26:22;;;;;;;21.27;12.97;;;5.60;99.90;;;;;;5096973;28;20496;-68
2023/03/07 03:28:49;;;;;;;21.03;13.47;;;5.60;99.90;;;;;;5096411;28;20175;-67
2023/03/07 03:31:15;;;;;;;20.57;13.00;;;5.60;99.90;;;;;;5096765;28;20197;-67
2023/03/07 03:33:42;;;;;;;18.87;12.87;;;5.60;99.90;;;;;;5096150;28;20219;-67
2023/03/07 03:36:11;;;;;;;18.00;12.90;;;5.60;99.90;;;;;;5096721;28;20180;-68
2023/03/07 03:38:38;;;;;;;17.80;12.30;;;5.60;99.90;;;;;;5096587;28;20180;-67
2023/03/07 03:41:09;;;;;;;17.23;12.13;;;5.60;99.90;;;;;;5096121;28;20255;-67
2023/03/07 03:43:35;;;;;;;18.73;12.47;;;5.60;99.90;;;;;;5096232;28;20175;-66
2023/03/07 03:46:01;;;;;;;20.70;12.10;;;5.60;99.90;;;;;;5096432;28;20172;-67
2023/03/07 03:48:27;;;;;;;19.87;12.53;;;5.50;99.90;;;;;;5096289;28;20398;-67
2023/03/07 03:51:06;;;;;;;18.70;12.73;;;5.60;99.90;;;;;;5096375;28;20171;-66
2023/03/07 03:53:33;;;;;;;16.57;12.57;;;5.60;99.90;;;;;;5096273;28;20159;-66
2023/03/07 03:56:19;;;;;;;17.33;11.63;;;5.60;99.90;;;;;;5095800;28;20164;-67
2023/03/07 03:58:54;;;;;;;16.77;12.50;;;5.70;99.90;;;;;;5094674;28;20261;-67
2023/03/07 04:01:22;;;;;;;18.10;12.20;;;5.60;99.90;;;;;;5095670;28;20171;-67
2023/03/07 04:03:50;;;;;;;17.70;12.97;;;5.60;99.90;;;;;;5095939;28;20206;-67
2023/03/07 04:06:18;;;;;;;19.50;12.63;;;5.60;99.90;;;;;;5096115;28;20176;-67
2023/03/07 04:08:45;;;;;;;19.47;12.80;;;5.60;99.90;;;;;;5095858;28;20171;-67
2023/03/07 04:11:11;;;;;;;21.07;13.47;;;5.70;99.90;;;;;;5095571;28;20223;-67
2023/03/07 04:13:37;;;;;;;16.60;12.10;;;5.70;99.90;;;;;;5095807;28;20263;-66
2023/03/07 04:16:04;;;;;;;19.63;12.23;;;5.60;99.90;;;;;;5095794;28;20270;-65
2023/03/07 04:18:29;;;;;;;17.37;11.87;;;5.70;99.90;;;;;;5095642;28;20160;-67
2023/03/07 04:20:55;;;;;;;19.60;12.17;;;5.80;99.90;;;;;;5094146;28;20512;-66
2023/03/07 04:23:22;;;;;;;20.10;12.53;;;5.70;99.90;;;;;;5095466;28;20195;-67
2023/03/07 04:25:56;;;;;;;16.40;11.97;;;5.70;99.90;;;;;;5094974;28;20191;-66
2023/03/07 04:28:24;;;;;;;15.90;12.30;;;5.70;99.90;;;;;;5095440;28;20263;-66
2023/03/07 04:30:52;;;;;;;15.73;11.87;;;5.60;99.90;;;;;;5095432;28;20168;-66
2023/03/07 04:33:18;;;;;;;19.40;12.40;;;5.70;99.90;;;;;;5094740;28;20704;-67
2023/03/07 04:35:47;;;;;;;16.97;11.83;;;5.70;99.90;;;;;;5095101;28;20180;-66
2023/03/07 04:38:14;;;;;;;22.13;12.60;;;5.70;99.90;;;;;;5094998;28;20179;-66
2023/03/07 04:40:40;;;;;;;18.07;12.17;;;5.80;99.90;;;;;;5095009;28;20179;-67
2023/03/07 04:43:05;;;;;;;18.77;12.07;;;5.70;99.90;;;;;;5095360;28;20229;-66
2023/03/07 04:45:38;;;;;;;18.50;11.87;;;5.70;99.90;;;;;;5095062;28;20179;-66
2023/03/07 04:48:04;;;;;;;16.33;11.53;;;5.70;99.90;;;;;;5093469;28;20176;-68
2023/03/07 04:50:29;;;;;;;16.93;11.87;;;5.70;99.90;;;;;;5094707;28;20184;-67
2023/03/07 04:52:55;;;;;;;18.23;11.60;;;5.70;99.90;;;;;;5094371;28;20172;-66
2023/03/07 04:55:20;;;;;;;17.23;12.03;;;5.60;99.90;;;;;;5094346;28;20207;-66
2023/03/07 04:57:46;;;;;;;16.87;11.67;;;5.60;99.90;;;;;;5094483;28;20176;-66
2023/03/07 05:00:13;;;;;;;16.90;11.97;;;5.70;99.90;;;;;;5094918;28;20199;-65
2023/03/07 05:02:38;;;;;;;18.87;12.30;;;5.70;99.90;;;;;;5094624;28;20618;-67
2023/03/07 05:05:05;;;;;;;16.33;11.43;;;5.70;99.90;;;;;;5094506;28;20268;-66
2023/03/07 05:07:31;;;;;;;18.00;12.87;;;5.70;99.90;;;;;;5094903;28;20179;-67
2023/03/07 05:09:57;;;;;;;18.77;12.00;;;5.70;99.90;;;;;;5094058;28;20172;-67
2023/03/07 05:12:26;;;;;;;21.03;12.93;;;5.80;99.90;;;;;;5094041;28;20236;-67
2023/03/07 05:14:51;;;;;;;18.93;12.57;;;5.70;99.90;;;;;;5093160;28;20211;-67
2023/03/07 05:17:18;;;;;;;18.40;12.80;;;5.80;99.90;;;;;;5094539;28;20204;-67
2023/03/07 05:19:47;;;;;;;18.10;12.10;;;5.80;99.90;;;;;;5094226;28;20250;-67
2023/03/07 05:22:12;;;;;;;20.10;12.60;;;5.70;99.90;;;;;;5092629;28;20635;-65
2023/03/07 05:24:38;;;;;;;17.23;12.67;;;5.70;99.90;;;;;;5093712;28;20199;-67
2023/03/07 05:27:04;;;;;;;17.20;12.60;;;5.80;99.90;;;;;;5094250;28;20569;-67
2023/03/07 05:29:29;;;;;;;17.67;12.10;;;5.80;99.90;;;;;;5094250;28;20728;-65
2023/03/07 05:31:57;;;;;;;20.07;12.97;;;5.70;99.90;;;;;;5094041;28;20285;-67
2023/03/07 05:34:23;;;;;;;17.63;12.53;;;5.60;99.90;;;;;;5093402;28;20235;-67
2023/03/07 05:36:48;;;;;;;17.67;11.80;;;5.60;99.90;;;;;;5093459;28;20176;-67
2023/03/07 05:39:15;;;;;;;16.77;12.43;;;5.50;99.90;;;;;;5093574;28;20183;-67
2023/03/07 05:41:40;;;;;;;18.00;13.07;;;5.50;99.90;;;;;;5093751;28;20180;-66
2023/03/07 05:44:06;;;;;;;16.83;11.67;;;5.60;99.90;;;;;;5093941;28;20188;-68
2023/03/07 05:46:32;;;;;;;21.03;13.50;;;5.60;99.90;;;;;;5093378;28;20627;-67
2023/03/07 05:48:58;;;;;;;17.30;11.90;;;5.60;99.90;;;;;;5093781;28;20247;-66
2023/03/07 05:51:23;;;;;;;16.97;12.40;;;5.60;99.90;;;;;;5091721;28;20572;-66
2023/03/07 05:53:49;;;;;;;17.97;13.00;;;5.70;99.90;;;;;;5092896;28;20685;-65
2023/03/07 05:56:15;;;;;;;18.20;12.77;;;5.70;99.90;;;;;;5091886;28;20180;-67
2023/03/07 05:58:40;;;;;;;18.83;12.57;;;5.60;99.90;;;;;;5091943;28;20200;-67
2023/03/07 06:01:06;;;;;;;19.37;13.10;;;5.70;99.90;;;;;;5093006;28;20203;-67
2023/03/07 06:03:31;;;;;;;19.63;13.13;;;5.70;99.90;;;;;;5093582;28;20176;-66
2023/03/07 06:05:57;;;;;;;20.10;13.10;;;5.60;99.90;;;;;;5093192;28;20175;-66
2023/03/07 06:08:23;;;;;;;18.83;13.30;;;5.60;99.90;;;;;;5092483;28;20172;-66
2023/03/07 06:10:50;;;;;;;17.23;12.40;;;5.70;99.90;;;;;;5092568;28;20183;-67
2023/03/07 06:13:19;;;;;;;18.97;11.80;;;5.70;99.90;;;;;;5093222;28;20168;-66
2023/03/07 06:15:49;;;;;;;18.23;13.10;;;5.70;99.90;;;;;;5092839;28;20210;-67
2023/03/07 06:18:14;;;;;;;17.30;12.87;;;5.60;99.90;;;;;;5092570;28;20169;-67
2023/03/07 06:20:40;;;;;;;18.97;12.83;;;5.60;99.90;;;;;;5092331;28;20168;-67
2023/03/07 06:23:05;;;;;;;22.87;13.80;;;5.60;99.90;;;;;;5091316;28;20176;-67
2023/03/07 06:25:31;;;;;;;17.97;12.73;;;5.60;99.90;;;;;;5092425;28;20163;-66
2023/03/07 06:27:59;;;;;;;18.57;12.57;;;5.60;99.90;;;;;;5092457;28;20174;-67
2023/03/07 06:30:26;;;;;;;21.23;12.97;;;5.60;99.90;;;;;;5092297;28;20176;-67
2023/03/07 06:32:51;;;;;;;18.03;12.63;;;5.60;99.90;;;;;;5091835;28;20178;-67
2023/03/07 06:35:18;;;;;;;17.43;12.80;;;5.70;99.90;;;;;;5092106;28;20247;-66
2023/03/07 06:37:43;;;;;;;20.23;12.57;;;5.60;99.90;;;;;;5091768;28;20207;-67
2023/03/07 06:40:09;;;;;;;18.70;11.67;;;5.70;99.90;;;;;;5092104;28;20175;-66
2023/03/07 06:42:35;;;;;;;20.30;12.70;;;5.70;99.90;;;;;;5092141;28;20630;-67
2023/03/07 06:45:01;;;;;;;19.20;12.83;;;5.70;99.90;;;;;;5092918;28;20202;-67
2023/03/07 06:47:27;;;;;;;20.13;12.70;;;5.80;99.90;;;;;;5091861;28;20183;-67
2023/03/07 06:49:54;;;;;;;18.07;12.53;;;5.80;99.90;;;;;;5092246;28;20172;-66
2023/03/07 06:52:20;;;;;;;19.17;13.23;;;5.80;99.90;;;;;;5092454;28;20186;-67
2023/03/07 06:54:46;;;;;;;21.43;13.87;;;5.90;99.90;;;;;;5091655;28;20745;-67
2023/03/07 06:57:12;;;;;;;24.00;13.53;;;5.90;99.90;;;;;;5092146;28;20204;-67
2023/03/07 06:59:37;;;;;;;18.40;13.00;;;5.90;99.90;;;;;;5091992;28;20231;-66
2023/03/07 07:02:04;;;;;;;17.40;13.30;;;6.00;99.90;;;;;;5091527;28;20615;-67
2023/03/07 07:04:29;;;;;;;21.03;13.00;;;5.90;99.90;;;;;;5091912;28;20168;-67
2023/03/07 07:06:55;;;;;;;23.20;13.23;;;5.90;99.90;;;;;;5091670;28;20183;-68
2023/03/07 07:09:21;;;;;;;18.27;13.37;;;6.00;99.90;;;;;;5091747;28;20179;-66
2023/03/07 07:11:46;;;;;;;23.40;13.50;;;5.90;99.90;;;;;;5089905;28;20271;-66
2023/03/07 07:14:12;;;;;;;20.53;13.67;;;6.00;99.90;;;;;;5091958;28;20214;-67
2023/03/07 07:16:37;;;;;;;19.57;13.50;;;6.00;99.90;;;;;;5092153;28;20201;-67
2023/03/07 07:19:03;;;;;;;19.73;11.63;;;6.00;99.90;;;;;;5080775;28;20184;-65
2023/03/07 07:21:29;;;;;;;16.70;12.80;;;5.90;99.90;;;;;;5084402;28;20701;-67
2023/03/07 07:23:58;;;;;;;16.80;12.20;;;6.00;99.90;;;;;;5103395;28;20255;-66
2023/03/07 07:26:25;;;;;;;17.90;12.80;;;6.00;99.90;;;;;;5090569;28;20287;-66
2023/03/07 07:28:53;;;;;;;18.63;12.37;;;6.00;99.90;;;;;;5091591;28;20241;-67
2023/03/07 07:31:19;;;;;;;20.53;12.53;;;6.10;99.90;;;;;;5091321;28;20179;-67
2023/03/07 07:33:45;;;;;;;16.87;12.60;;;6.10;99.90;;;;;;5090071;28;20729;-65
2023/03/07 07:36:11;;;;;;;18.47;12.87;;;6.00;99.90;;;;;;5091682;28;20180;-68
2023/03/07 07:38:36;;;;;;;19.03;12.43;;;6.10;99.90;;;;;;5094574;28;20229;-67
2023/03/07 07:41:03;;;;;;;18.23;13.00;;;6.10;99.90;;;;;;5095021;28;20184;-66
2023/03/07 07:43:29;;;;;;;17.93;11.73;;;6.10;99.90;;;;;;5095255;28;20172;-68
2023/03/07 07:45:54;;;;;;;16.23;11.97;;;6.20;99.90;;;;;;5093272;28;20236;-66
2023/03/07 07:48:20;;;;;;;18.70;12.27;;;6.10;99.90;;;;;;5094868;28;20164;-67
2023/03/07 07:50:46;;;;;;;17.30;12.03;;;6.20;99.90;;;;;;5094330;28;20517;-69
2023/03/07 07:53:17;;;;;;;18.67;12.83;;;6.20;99.90;;;;;;5094017;28;20178;-68
2023/03/07 07:55:43;;;;;;;16.73;12.27;;;6.20;99.90;;;;;;5090929;28;20230;-67
2023/03/07 07:58:09;;;;;;;17.13;12.70;;;6.10;99.90;;;;;;5078201;28;20172;-66
2023/03/07 08:00:34;;;;;;;16.47;12.37;;;6.10;99.90;;;;;;5092854;28;20634;-68
2023/03/07 08:03:00;;;;;;;16.00;11.90;;;6.20;99.90;;;;;;5094543;28;20182;-69
2023/03/07 08:05:26;;;;;;;14.07;10.97;;;6.20;99.90;;;;;;5093915;28;20172;-68
2023/03/07 08:07:52;;;;;;;14.87;10.53;;;6.10;99.90;;;;;;5094476;28;20199;-67
2023/03/07 08:10:18;;;;;;;14.23;10.90;;;6.10;99.90;;;;;;5094062;28;20221;-67
2023/03/07 08:12:50;;;;;;;13.00;9.57;;;6.00;99.90;;;;;;5094915;28;20172;-67
2023/03/07 08:15:16;;;;;;;13.80;10.77;;;6.00;99.90;;;;;;5094020;28;20239;-67
2023/03/07 08:17:43;;;;;;;12.37;10.13;;;6.00;99.90;;;;;;5092220;28;20224;-68
2023/03/07 08:20:10;;;;;;;15.60;11.07;;;6.10;99.90;;;;;;5093549;28;20243;-68
2023/03/07 08:22:36;;;;;;;12.73;10.33;;;6.20;99.90;;;;;;5093742;28;20168;-66
2023/03/07 08:25:03;;;;;;;15.47;11.13;;;6.20;99.90;;;;;;5094042;28;20175;-66
2023/03/07 08:27:29;;;;;;;14.90;11.03;;;6.20;99.90;;;;;;5094251;28;20293;-68
2023/03/07 08:29:55;;;;;;;14.40;11.10;;;6.20;99.90;;;;;;5091811;28;20309;-66
2023/03/07 08:32:21;;;;;;;13.90;10.77;;;6.30;99.90;;;;;;5093358;28;20259;-67
2023/03/07 08:34:47;;;;;;;16.90;10.77;;;6.30;99.90;;;;;;5091400;28;20323;-66
2023/03/07 08:37:12;;;;;;;19.23;12.17;;;6.20;99.90;;;;;;5092902;28;20172;-66
2023/03/07 08:39:38;;;;;;;15.70;11.53;;;6.20;99.90;;;;;;5094048;28;20207;-67
2023/03/07 08:42:04;;;;;;;15.27;12.00;;;6.30;99.90;;;;;;5093590;28;20236;-68
2023/03/07 08:44:32;;;;;;;16.10;11.73;;;6.30;99.90;;;;;;5093177;28;20548;-67
2023/03/07 08:47:00;;;;;;;14.70;12.57;;;6.30;99.90;;;;;;5093531;28;20183;-68
2023/03/07 08:49:26;;;;;;;15.23;12.67;;;6.30;99.90;;;;;;5091924;28;20709;-67
2023/03/07 08:51:52;;;;;;;19.80;12.97;;;6.40;99.90;;;;;;5092242;28;20325;-67
2023/03/07 08:54:17;;;;;;;19.20;13.23;;;6.40;99.90;;;;;;5093737;28;20208;-69
2023/03/07 08:56:43;;;;;;;16.97;13.03;;;6.40;99.90;;;;;;5093562;28;20535;-68
2023/03/07 08:59:08;;;;;;;18.57;13.40;;;6.40;99.90;;;;;;5093758;28;20219;-68
2023/03/07 09:01:34;;;;;;;19.50;14.30;;;6.40;99.90;;;;;;5093067;28;20168;-66
2023/03/07 09:04:00;;;;;;;20.60;12.93;;;6.40;99.90;;;;;;5100850;28;20175;-68
2023/03/07 09:06:25;;;;;;;19.47;13.10;;;6.50;99.90;;;;;;5091968;28;20222;-67
2023/03/07 09:08:51;;;;;;;18.83;11.97;;;6.40;99.90;;;;;;5093005;28;20259;-68
2023/03/07 09:11:17;;;;;;;15.53;11.90;;;6.40;99.90;;;;;;5093266;28;20658;-68
2023/03/07 09:13:43;;;;;;;16.03;11.27;;;6.50;99.90;;;;;;5093695;28;20176;-67
2023/03/07 09:16:09;;;;;;;15.33;10.57;;;6.50;99.90;;;;;;5093122;28;20168;-68
2023/03/07 09:18:35;;;;;;;16.63;11.67;;;6.60;99.90;;;;;;5092072;28;20180;-67
2023/03/07 09:21:02;;;;;;;14.23;10.77;;;6.50;99.90;;;;;;5094751;28;20184;-66
2023/03/07 09:23:28;;;;;;;13.77;10.20;;;6.50;99.90;;;;;;5112906;28;20186;-66
2023/03/07 09:25:54;;;;;;;15.33;10.40;;;6.50;99.90;;;;;;5112582;28;20243;-66
2023/03/07 09:28:19;;;;;;;14.87;10.07;;;6.50;99.90;;;;;;5113785;28;20629;-67
2023/03/07 09:30:45;;;;;;;15.60;8.87;;;6.50;99.90;;;;;;5113186;28;20167;-68
2023/03/07 09:33:11;;;;;;;14.97;9.57;;;6.50;99.90;;;;;;5112783;28;20291;-68
2023/03/07 09:35:38;;;;;;;16.67;9.10;;;6.50;99.90;;;;;;5113237;28;20236;-67
2023/03/07 09:38:03;;;;;;;11.53;8.13;;;6.50;99.90;;;;;;5113281;28;20194;-68
2023/03/07 09:40:32;;;;;;;16.27;9.60;;;6.40;99.90;;;;;;5113242;28;20254;-67
2023/03/07 09:43:18;;;;;;;12.80;9.23;;;6.40;99.90;;;;;;5113689;28;20179;-68
2023/03/07 09:45:44;;;;;;;19.60;11.20;;;6.40;99.90;;;;;;5112043;28;20267;-69
2023/03/07 09:48:30;;;;;;;13.27;8.33;;;6.60;99.90;;;;;;5108098;28;20206;-68
2023/03/07 09:51:35;;;;;;;12.70;8.90;;;6.50;99.90;;;;;;5101419;28;20263;-67
2023/03/07 09:54:00;;;;;;;10.83;8.33;;;6.50;99.90;;;;;;5101353;28;20298;-67
2023/03/07 09:56:31;;;;;;;13.33;9.03;;;6.30;99.90;;;;;;5089267;28;20631;-67
2023/03/07 09:59:06;;;;;;;11.87;8.60;;;6.20;99.90;;;;;;5070941;28;20204;-67
2023/03/07 10:01:34;;;;;;;10.73;8.37;;;6.20;99.90;;;;;;5072827;28;20168;-67
2023/03/07 10:04:03;;;;;;;7.63;6.47;;;6.20;99.90;;;;;;5072638;28;20205;-69
2023/03/07 10:06:40;;;;;;;5.67;5.10;;;6.20;99.90;;;;;;5071492;28;20214;-67
2023/03/07 10:09:15;;;;;;;8.53;5.00;;;5.90;99.90;;;;;;5072692;28;20208;-68
2023/03/07 10:11:49;;;;;;;5.17;4.57;;;5.90;99.90;;;;;;5072108;28;20676;-69
2023/03/07 10:14:23;;;;;;;6.33;4.50;;;5.80;99.90;;;;;;5072749;28;20196;-68
2023/03/07 10:16:58;;;;;;;5.03;4.40;;;6.00;99.90;;;;;;5072703;28;20262;-68
2023/03/07 10:19:29;;;;;;;6.13;4.87;;;6.00;99.90;;;;;;5071495;28;20180;-67
2023/03/07 10:22:27;;;;;;;4.83;4.27;;;6.00;99.90;;;;;;5071137;28;20255;-68
2023/03/07 10:24:59;;;;;;;5.03;4.47;;;6.10;99.90;;;;;;5072575;28;20238;-67
2023/03/07 10:27:28;;;;;;;5.27;4.77;;;6.20;99.90;;;;;;5092409;28;20172;-67
2023/03/07 10:29:58;;;;;;;8.30;6.37;;;6.20;99.90;;;;;;5092229;28;20203;-69
2023/03/07 10:32:44;;;;;;;15.27;11.97;;;6.30;99.90;;;;;;5092150;28;20164;-69
2023/03/07 10:35:10;;;;;;;5.73;5.13;;;6.40;99.90;;;;;;5092229;28;20247;-67
2023/03/07 10:37:52;;;;;;;5.73;5.10;;;6.40;99.90;;;;;;5091498;28;20230;-68
2023/03/07 10:40:42;;;;;;;5.37;4.87;;;6.30;99.90;;;;;;5092015;28;20160;-69
2023/03/07 10:43:24;;;;;;;5.73;5.23;;;6.20;99.90;;;;;;5090381;28;20176;-68
2023/03/07 10:45:59;;;;;;;6.43;4.80;;;6.20;99.90;;;;;;5090830;28;20657;-69
2023/03/07 10:48:30;;;;;;;4.27;3.97;;;6.20;99.90;;;;;;5089908;28;20258;-67
2023/03/07 10:51:23;;;;;;;4.63;4.30;;;6.10;99.90;;;;;;5087403;28;20307;-68
2023/03/07 10:53:49;;;;;;;5.23;4.57;;;6.20;99.90;;;;;;5092082;28;20233;-68
2023/03/07 10:56:17;;;;;;;4.83;4.43;;;6.30;99.90;;;;;;5091386;28;20178;-67
2023/03/07 10:59:02;;;;;;;4.07;3.77;;;6.50;99.90;;;;;;5089638;28;20195;-68
2023/03/07 11:01:29;;;;;;;3.73;3.40;;;6.60;99.90;;;;;;5092039;28;20182;-67
2023/03/07 11:04:01;;;;;;;3.50;3.20;;;6.50;99.90;;;;;;5091305;28;20184;-66
2023/03/07 11:06:29;;;;;;;3.83;3.47;;;6.50;99.90;;;;;;5091612;28;20176;-68
2023/03/07 11:08:55;;;;;;;3.83;3.53;;;6.40;99.90;;;;;;5091874;28;20236;-69
2023/03/07 11:11:33;;;;;;;4.10;3.70;;;6.50;99.90;;;;;;5092309;28;20572;-69
2023/03/07 11:14:10;;;;;;;4.23;3.93;;;6.50;99.90;;;;;;5095858;28;20248;-68
2023/03/07 11:16:55;;;;;;;4.13;3.83;;;6.40;99.90;;;;;;5095429;28;20186;-69
2023/03/07 11:19:38;;;;;;;3.80;3.50;;;6.40;99.90;;;;;;5095586;28;20642;-67
2023/03/07 11:22:28;;;;;;;6.63;4.53;;;6.30;99.90;;;;;;5096234;28;20183;-67
2023/03/07 11:25:24;;;;;;;4.23;3.53;;;6.30;99.90;;;;;;5086549;28;20179;-67
2023/03/07 11:27:59;;;;;;;4.90;4.00;;;6.30;99.90;;;;;;5094839;28;20183;-68
2023/03/07 11:30:33;;;;;;;5.10;4.70;;;6.30;99.90;;;;;;5106047;28;20171;-68
2023/03/07 11:33:07;;;;;;;5.40;3.90;;;6.40;99.90;;;;;;5115776;28;20217;-69
2023/03/07 11:36:06;;;;;;;4.53;4.23;;;6.50;99.90;;;;;;5074582;28;20219;-68
2023/03/07 11:38:54;;;;;;;4.90;3.90;;;6.40;99.90;;;;;;5073246;28;20260;-70
2023/03/07 11:41:40;;;;;;;5.97;5.40;;;6.30;99.90;;;;;;5074890;28;20199;-69
2023/03/07 11:44:20;;;;;;;4.87;4.47;;;6.30;99.90;;;;;;5075146;28;20168;-67
2023/03/07 11:47:01;;;;;;;5.10;4.70;;;6.30;99.90;;;;;;5075742;28;20203;-68
2023/03/07 11:49:35;;;;;;;6.23;5.73;;;6.40;99.90;;;;;;5074713;28;20576;-68
2023/03/07 11:52:20;;;;;;;6.03;5.43;;;6.40;99.90;;;;;;5074523;28;20247;-69
2023/03/07 11:55:06;;;;;;;6.37;5.77;;;6.50;99.90;;;;;;5072669;28;20663;-68
2023/03/07 11:57:57;;;;;;;8.13;5.00;;;6.50;99.90;;;;;;5073951;28;20180;-69
2023/03/07 12:00:53;;;;;;;6.53;5.00;;;6.50;99.90;;;;;;5073480;28;20165;-69
2023/03/07 12:03:56;;;;;;;5.30;4.90;;;6.50;99.90;;;;;;5053469;28;20178;-69
2023/03/07 12:06:31;;;;;;;6.80;6.20;;;6.50;99.90;;;;;;5071904;28;20180;-70
2023/03/07 12:09:15;;;;;;;5.27;4.87;;;6.70;99.90;;;;;;5072846;28;20169;-70
2023/03/07 12:12:18;;;;;;;6.13;5.17;;;6.60;99.90;;;;;;5073868;28;20195;-68
2023/03/07 12:14:55;;;;;;;6.17;5.67;;;6.70;99.90;;;;;;5065196;28;20223;-68
2023/03/07 12:17:58;;;;;;;5.70;4.93;;;6.60;99.90;;;;;;5034451;28;20166;-67
2023/03/07 12:21:17;;;;;;;5.97;5.33;;;6.70;99.90;;;;;;5034786;28;20172;-73
2023/03/07 12:24:07;;;;;;;5.37;4.57;;;6.80;99.90;;;;;;5017077;28;20269;-67
2023/03/07 12:26:57;;;;;;;3.63;3.33;;;6.90;99.90;;;;;;5049016;28;20173;-67
2023/03/07 12:29:36;;;;;;;3.73;3.43;;;6.90;99.90;;;;;;5054248;28;20172;-67
2023/03/07 12:32:19;;;;;;;3.90;3.60;;;6.90;99.90;;;;;;5051373;28;20183;-67
2023/03/07 12:34:57;;;;;;;3.50;3.30;;;6.80;99.90;;;;;;5080774;28;20223;-70
2023/03/07 12:37:31;;;;;;;3.83;3.53;;;6.90;99.90;;;;;;5092947;28;20618;-68
2023/03/07 12:40:09;;;;;;;4.17;3.87;;;6.90;99.90;;;;;;5093514;28;20699;-67
2023/03/07 12:42:59;;;;;;;3.73;3.43;;;7.10;99.90;;;;;;5093642;28;20164;-68
2023/03/07 12:45:47;;;;;;;5.17;3.60;;;7.00;99.90;;;;;;5093598;28;20164;-68
2023/03/07 12:48:19;;;;;;;4.50;4.10;;;6.80;99.90;;;;;;5095267;28;20168;-66
2023/03/07 12:51:05;;;;;;;3.43;3.13;;;6.80;99.90;;;;;;5112473;28;20176;-67
2023/03/07 12:53:43;;;;;;;4.03;3.23;;;6.70;99.90;;;;;;5107149;28;20178;-67
2023/03/07 12:56:14;;;;;;;3.63;2.93;;;6.60;99.90;;;;;;5093298;28;20187;-67
2023/03/07 12:58:47;;;;;;;2.90;2.70;;;6.60;99.90;;;;;;5090648;28;20196;-68